createdAt,value
2019-03-03T00:00:47.850Z,8.86
2019-03-03T00:04:01.300Z,8.85
2019-03-03T00:07:14.747Z,8.96
2019-03-03T00:10:28.439Z,8.82
2019-03-03T00:13:42.129Z,8.81
2019-03-03T00:16:55.565Z,8.68
2019-03-03T00:20:09.548Z,8.83
2019-03-03T00:23:23.363Z,8.76
2019-03-03T00:26:36.943Z,8.60
2019-03-03T00:29:50.684Z,8.69
2019-03-03T00:33:04.274Z,8.63
2019-03-03T00:36:18.139Z,8.59
2019-03-03T00:40:00.308Z,8.67
2019-03-03T00:43:36.973Z,8.76
2019-03-03T00:47:16.460Z,8.85
2019-03-03T00:50:36.199Z,8.84
2019-03-03T00:54:02.751Z,8.88
2019-03-03T00:57:35.990Z,8.90
2019-03-03T01:00:56.817Z,8.86
2019-03-03T01:04:33.315Z,8.95
2019-03-03T01:08:10.719Z,8.96
2019-03-03T01:11:39.302Z,8.97
2019-03-03T01:14:59.658Z,8.96
2019-03-03T01:18:38.428Z,8.94
2019-03-03T01:22:02.731Z,9.00
2019-03-03T01:25:16.303Z,9.12
2019-03-03T01:28:30.023Z,9.06
2019-03-03T01:31:43.603Z,9.10
2019-03-03T01:34:57.227Z,9.11
2019-03-03T01:38:11.240Z,8.95
2019-03-03T01:41:24.826Z,8.93
2019-03-03T01:44:38.303Z,8.90
2019-03-03T01:47:52.007Z,9.05
2019-03-03T01:51:05.868Z,8.96
2019-03-03T01:54:19.549Z,8.95
2019-03-03T01:57:33.124Z,8.93
2019-03-03T02:00:46.916Z,8.83
2019-03-03T02:04:00.738Z,8.92
2019-03-03T02:07:14.722Z,8.91
2019-03-03T02:10:28.697Z,8.96
2019-03-03T02:13:42.362Z,8.88
2019-03-03T02:16:55.853Z,8.84
2019-03-03T02:20:09.981Z,8.89
2019-03-03T02:23:23.835Z,9.01
2019-03-03T02:26:37.433Z,8.88
2019-03-03T02:29:51.022Z,8.90
2019-03-03T02:33:04.795Z,8.94
2019-03-03T02:36:18.476Z,8.94
2019-03-03T02:39:32.245Z,8.88
2019-03-03T02:42:46.039Z,8.80
2019-03-03T02:45:59.533Z,8.92
2019-03-03T02:49:13.086Z,8.89
2019-03-03T02:52:26.879Z,8.80
2019-03-03T02:55:40.656Z,8.81
2019-03-03T02:58:54.135Z,8.87
2019-03-03T03:02:15.259Z,8.99
2019-03-03T03:05:45.355Z,9.03
2019-03-03T03:09:13.947Z,8.93
2019-03-03T03:12:47.093Z,9.00
2019-03-03T03:16:12.271Z,8.99
2019-03-03T03:19:31.805Z,9.03
2019-03-03T03:22:53.994Z,9.12
2019-03-03T03:26:17.350Z,9.16
2019-03-03T03:29:38.090Z,9.06
2019-03-03T03:33:04.038Z,9.11
2019-03-03T03:36:23.578Z,9.14
2019-03-03T03:39:50.174Z,9.27
2019-03-03T03:43:12.970Z,9.08
2019-03-03T03:46:34.250Z,9.06
2019-03-03T03:50:03.218Z,9.14
2019-03-03T03:53:34.775Z,9.08
2019-03-03T03:57:00.750Z,9.04
2019-03-03T04:00:34.003Z,9.14
2019-03-03T04:04:12.845Z,9.12
2019-03-03T04:07:38.654Z,9.15
2019-03-03T04:11:17.700Z,9.07
2019-03-03T04:14:40.926Z,9.14
2019-03-03T04:18:01.998Z,9.09
2019-03-03T04:21:33.681Z,9.03
2019-03-03T04:25:01.869Z,9.11
2019-03-03T04:28:41.112Z,9.12
2019-03-03T04:31:58.300Z,9.16
2019-03-03T04:35:16.815Z,9.34
2019-03-03T04:39:08.143Z,9.17
2019-03-03T04:42:56.943Z,9.25
2019-03-03T04:46:17.618Z,9.11
2019-03-03T04:49:38.622Z,9.18
2019-03-03T04:52:59.276Z,9.19
2019-03-03T04:56:50.823Z,9.11
2019-03-03T05:00:40.055Z,9.02
2019-03-03T05:04:00.045Z,9.19
2019-03-03T05:07:25.951Z,9.07
2019-03-03T05:11:08.989Z,9.04
2019-03-03T05:14:29.088Z,9.14
2019-03-03T05:17:47.702Z,9.03
2019-03-03T05:21:01.534Z,8.92
2019-03-03T05:24:15.007Z,8.91
2019-03-03T05:27:28.785Z,8.94
2019-03-03T05:30:42.804Z,9.06
2019-03-03T05:33:56.535Z,9.02
2019-03-03T05:37:10.027Z,8.96
2019-03-03T05:40:23.781Z,8.89
2019-03-03T05:43:37.267Z,8.89
2019-03-03T05:46:51.463Z,8.89
2019-03-03T05:50:05.193Z,8.99
2019-03-03T05:53:18.779Z,8.92
2019-03-03T05:56:32.395Z,8.94
2019-03-03T05:59:46.234Z,8.90
2019-03-03T06:02:59.828Z,8.89
2019-03-03T06:06:13.319Z,8.90
2019-03-03T06:09:26.919Z,8.96
2019-03-03T06:12:40.661Z,8.90
2019-03-03T06:15:54.429Z,9.00
2019-03-03T06:19:07.940Z,8.92
2019-03-03T06:22:21.410Z,8.84
2019-03-03T06:25:35.187Z,8.88
2019-03-03T06:28:48.668Z,8.88
2019-03-03T06:32:02.260Z,9.00
2019-03-03T06:35:15.749Z,8.96
2019-03-03T06:38:29.231Z,9.00
2019-03-03T06:41:43.035Z,9.09
2019-03-03T06:44:56.483Z,9.12
2019-03-03T06:48:09.977Z,9.00
2019-03-03T06:51:23.550Z,9.01
2019-03-03T06:54:37.043Z,9.18
2019-03-03T06:57:50.631Z,9.06
2019-03-03T07:01:04.331Z,9.27
2019-03-03T07:04:17.810Z,9.25
2019-03-03T07:07:31.567Z,9.26
2019-03-03T07:10:45.080Z,9.24
2019-03-03T07:13:58.563Z,9.31
2019-03-03T07:17:12.055Z,9.17
2019-03-03T07:20:25.528Z,9.23
2019-03-03T07:23:39.137Z,9.33
2019-03-03T07:26:52.612Z,9.44
2019-03-03T07:30:08.794Z,9.38
2019-03-03T07:33:30.614Z,9.35
2019-03-03T07:36:44.348Z,9.30
2019-03-03T07:39:58.038Z,9.33
2019-03-03T07:43:14.314Z,9.47
2019-03-03T07:46:27.810Z,9.50
2019-03-03T07:49:41.560Z,9.46
2019-03-03T07:52:55.152Z,9.61
2019-03-03T07:56:08.727Z,9.58
2019-03-03T07:59:22.209Z,9.59
2019-03-03T08:02:35.780Z,9.64
2019-03-03T08:05:49.254Z,9.69
2019-03-03T08:09:04.780Z,9.83
2019-03-03T08:12:18.270Z,9.84
2019-03-03T08:15:31.768Z,9.78
2019-03-03T08:18:45.366Z,9.86
2019-03-03T08:21:58.864Z,9.83
2019-03-03T08:25:13.077Z,10.00
2019-03-03T08:28:26.670Z,10.08
2019-03-03T08:31:40.287Z,9.95
2019-03-03T08:34:54.374Z,10.01
2019-03-03T08:38:07.967Z,10.04
2019-03-03T08:41:21.454Z,10.00
2019-03-03T08:44:50.299Z,10.10
2019-03-03T08:48:12.110Z,9.96
2019-03-03T08:51:34.421Z,10.09
2019-03-03T08:55:04.543Z,10.24
2019-03-03T08:58:26.270Z,10.37
2019-03-03T09:01:52.169Z,10.44
2019-03-03T09:05:25.854Z,10.38
2019-03-03T09:08:57.767Z,10.29
2019-03-03T09:12:22.861Z,10.39
2019-03-03T09:16:00.664Z,10.58
2019-03-03T09:19:33.900Z,10.65
2019-03-03T09:23:10.041Z,10.66
2019-03-03T09:26:44.294Z,10.70
2019-03-03T09:30:21.018Z,10.81
2019-03-03T09:33:54.272Z,10.89
2019-03-03T09:37:14.047Z,10.89
2019-03-03T09:40:36.298Z,10.69
2019-03-03T09:43:59.811Z,10.67
2019-03-03T09:47:37.550Z,10.72
2019-03-03T09:51:26.194Z,10.61
2019-03-03T09:54:45.363Z,10.63
2019-03-03T09:58:18.523Z,10.68
2019-03-03T10:02:10.062Z,10.65
2019-03-03T10:05:43.230Z,10.65
2019-03-03T10:09:14.894Z,10.87
2019-03-03T10:13:00.529Z,10.80
2019-03-03T10:16:33.747Z,10.85
2019-03-03T10:20:22.055Z,10.71
2019-03-03T10:23:48.164Z,10.80
2019-03-03T10:27:27.423Z,10.99
2019-03-03T10:30:53.479Z,11.08
2019-03-03T10:34:34.102Z,11.06
2019-03-03T10:37:57.773Z,11.05
2019-03-03T10:41:43.376Z,11.22
2019-03-03T10:45:15.771Z,11.51
2019-03-03T10:48:52.027Z,11.71
2019-03-03T10:52:34.120Z,11.73
2019-03-03T10:56:16.736Z,11.88
2019-03-03T10:59:55.095Z,12.04
2019-03-03T11:03:13.361Z,11.89
2019-03-03T11:06:38.739Z,11.97
2019-03-03T11:10:03.298Z,12.34
2019-03-03T11:13:37.884Z,12.66
2019-03-03T11:17:06.222Z,12.91
2019-03-03T11:20:42.237Z,13.48
2019-03-03T11:24:20.367Z,13.87
2019-03-03T11:27:45.792Z,13.30
2019-03-03T11:31:12.969Z,13.25
2019-03-03T11:34:46.467Z,13.08
2019-03-03T11:38:26.010Z,13.00
2019-03-03T11:41:57.807Z,12.98
2019-03-03T11:45:19.531Z,12.74
2019-03-03T11:48:54.334Z,12.98
2019-03-03T11:52:25.639Z,13.19
2019-03-03T11:55:47.421Z,12.86
2019-03-03T11:59:20.559Z,12.90
2019-03-03T12:02:42.637Z,12.82
2019-03-03T12:06:04.936Z,13.25
2019-03-03T12:09:38.276Z,13.39
2019-03-03T12:13:04.991Z,13.36
2019-03-03T12:16:56.330Z,13.59
2019-03-03T12:20:42.642Z,13.35
2019-03-03T12:24:07.964Z,13.26
2019-03-03T12:27:35.690Z,12.96
2019-03-03T12:31:00.539Z,12.66
2019-03-03T12:34:31.404Z,12.51
2019-03-03T12:37:56.955Z,12.42
2019-03-03T12:41:20.299Z,12.15
2019-03-03T12:44:51.718Z,12.12
2019-03-03T12:48:34.258Z,12.03
2019-03-03T12:51:59.666Z,12.30
2019-03-03T12:55:18.288Z,12.51
2019-03-03T12:58:40.091Z,12.40
2019-03-03T13:02:07.270Z,12.48
2019-03-03T13:05:37.388Z,12.75
2019-03-03T13:09:13.665Z,12.68
2019-03-03T13:12:46.811Z,12.63
2019-03-03T13:16:18.932Z,12.61
2019-03-03T13:19:55.619Z,12.53
2019-03-03T13:23:18.348Z,12.57
2019-03-03T13:26:57.211Z,12.58
2019-03-03T13:30:39.816Z,12.76
2019-03-03T13:34:15.843Z,13.07
2019-03-03T13:37:38.417Z,13.11
2019-03-03T13:40:57.870Z,13.07
2019-03-03T13:44:11.472Z,13.18
2019-03-03T13:47:25.073Z,12.88
2019-03-03T13:50:38.654Z,12.83
2019-03-03T13:53:52.603Z,13.10
2019-03-03T13:57:06.318Z,13.37
2019-03-03T14:00:20.619Z,13.39
2019-03-03T14:03:34.319Z,13.43
2019-03-03T14:06:47.797Z,13.31
2019-03-03T14:10:01.400Z,13.25
2019-03-03T14:13:15.021Z,13.00
2019-03-03T14:16:28.692Z,12.83
2019-03-03T14:19:42.407Z,12.67
2019-03-03T14:22:56.460Z,12.73
2019-03-03T14:26:10.048Z,12.68
2019-03-03T14:29:23.551Z,12.40
2019-03-03T14:32:37.255Z,12.28
2019-03-03T14:35:50.832Z,12.17
2019-03-03T14:39:05.814Z,12.18
2019-03-03T14:42:19.489Z,12.12
2019-03-03T14:45:33.092Z,12.11
2019-03-03T14:48:46.677Z,12.04
2019-03-03T14:52:00.290Z,11.75
2019-03-03T14:55:15.039Z,11.56
2019-03-03T14:58:28.630Z,11.53
2019-03-03T15:01:42.203Z,11.47
2019-03-03T15:04:56.569Z,11.44
2019-03-03T15:08:10.186Z,11.41
2019-03-03T15:11:23.765Z,11.49
2019-03-03T15:14:37.367Z,11.46
2019-03-03T15:17:51.329Z,11.42
2019-03-03T15:21:05.125Z,11.39
2019-03-03T15:24:19.067Z,11.41
2019-03-03T15:27:32.757Z,11.50
2019-03-03T15:30:46.362Z,11.47
2019-03-03T15:34:00.080Z,11.52
2019-03-03T15:37:16.964Z,11.51
2019-03-03T15:40:30.682Z,11.55
2019-03-03T15:43:44.701Z,11.58
2019-03-03T15:46:58.612Z,11.66
2019-03-03T15:50:12.544Z,11.73
2019-03-03T15:53:26.706Z,11.62
2019-03-03T15:56:40.185Z,11.59
2019-03-03T15:59:53.690Z,11.59
2019-03-03T16:03:07.267Z,11.57
2019-03-03T16:06:20.839Z,11.61
2019-03-03T16:09:34.328Z,11.55
2019-03-03T16:12:48.211Z,11.45
2019-03-03T16:16:02.214Z,11.41
2019-03-03T16:19:15.684Z,11.36
2019-03-03T16:22:29.179Z,11.40
2019-03-03T16:25:43.758Z,11.38
2019-03-03T16:28:57.323Z,11.40
2019-03-03T16:32:11.027Z,11.38
2019-03-03T16:35:24.503Z,11.35
2019-03-03T16:38:37.970Z,11.43
2019-03-03T16:41:51.663Z,11.35
2019-03-03T16:45:06.257Z,11.28
2019-03-03T16:48:19.853Z,11.33
2019-03-03T16:51:33.344Z,11.34
2019-03-03T16:54:46.910Z,11.32
2019-03-03T16:58:00.383Z,11.37
2019-03-03T17:01:14.003Z,11.39
2019-03-03T17:04:27.474Z,11.39
2019-03-03T17:07:41.084Z,11.31
2019-03-03T17:10:54.648Z,11.25
2019-03-03T17:14:08.540Z,11.26
2019-03-03T17:17:22.219Z,11.19
2019-03-03T17:20:36.000Z,11.22
2019-03-03T17:23:49.503Z,11.31
2019-03-03T17:27:03.184Z,11.23
2019-03-03T17:30:20.571Z,11.28
2019-03-03T17:33:34.047Z,11.27
2019-03-03T17:36:47.640Z,11.34
2019-03-03T17:40:01.206Z,11.28
2019-03-03T17:43:14.687Z,11.27
2019-03-03T17:46:28.168Z,11.34
2019-03-03T17:49:41.652Z,11.24
2019-03-03T17:52:55.335Z,11.27
2019-03-03T17:56:08.858Z,11.27
2019-03-03T17:59:22.391Z,11.16
2019-03-03T18:02:35.868Z,11.16
2019-03-03T18:05:49.443Z,11.28
2019-03-03T18:09:04.760Z,11.18
2019-03-03T18:12:18.231Z,11.22
2019-03-03T18:15:31.802Z,11.08
2019-03-03T18:18:45.495Z,11.06
2019-03-03T18:21:58.999Z,10.99
2019-03-03T18:25:13.891Z,11.00
2019-03-03T18:28:27.962Z,11.00
2019-03-03T18:31:41.429Z,10.99
2019-03-03T18:34:54.907Z,10.94
2019-03-03T18:38:08.631Z,11.00
2019-03-03T18:41:22.100Z,11.00
2019-03-03T18:44:35.572Z,11.08
2019-03-03T18:47:49.263Z,11.09
2019-03-03T18:51:02.842Z,11.06
2019-03-03T18:54:16.544Z,11.10
2019-03-03T18:57:30.029Z,11.09
2019-03-03T19:00:43.987Z,10.98
2019-03-03T19:03:57.611Z,11.03
2019-03-03T19:07:11.501Z,11.03
2019-03-03T19:10:25.520Z,11.02
2019-03-03T19:13:39.123Z,11.05
2019-03-03T19:16:52.979Z,11.06
2019-03-03T19:20:08.340Z,11.00
2019-03-03T19:23:22.106Z,10.98
2019-03-03T19:26:36.263Z,11.06
2019-03-03T19:29:49.750Z,11.02
2019-03-03T19:33:09.592Z,11.03
2019-03-03T19:36:23.275Z,11.03
2019-03-03T19:39:36.866Z,10.95
2019-03-03T19:42:50.581Z,11.00
2019-03-03T19:46:04.470Z,10.98
2019-03-03T19:49:18.193Z,10.99
2019-03-03T19:52:31.893Z,11.01
2019-03-03T19:55:45.846Z,10.99
2019-03-03T19:58:59.494Z,10.95
2019-03-03T20:02:13.208Z,10.95
2019-03-03T20:05:26.883Z,10.89
2019-03-03T20:08:40.369Z,10.94
2019-03-03T20:11:54.052Z,10.94
2019-03-03T20:15:08.607Z,10.98
2019-03-03T20:18:22.095Z,10.99
2019-03-03T20:21:35.711Z,11.02
2019-03-03T20:24:49.278Z,10.90
2019-03-03T20:28:03.477Z,10.95
2019-03-03T20:31:17.291Z,10.98
2019-03-03T20:34:30.867Z,11.00
2019-03-03T20:37:44.880Z,11.07
2019-03-03T20:40:58.622Z,11.06
2019-03-03T20:44:12.257Z,11.07
2019-03-03T20:47:25.809Z,11.08
2019-03-03T20:50:39.404Z,11.16
2019-03-03T20:53:52.977Z,11.16
2019-03-03T20:57:06.547Z,11.23
2019-03-03T21:00:22.274Z,11.19
2019-03-03T21:03:36.028Z,11.27
2019-03-03T21:06:49.519Z,11.22
2019-03-03T21:10:03.912Z,11.36
2019-03-03T21:13:17.406Z,11.29
2019-03-03T21:16:30.888Z,11.27
2019-03-03T21:19:44.765Z,11.35
2019-03-03T21:22:59.293Z,11.19
2019-03-03T21:26:12.779Z,11.09
2019-03-03T21:29:26.248Z,11.14
2019-03-03T21:32:39.715Z,11.11
2019-03-03T21:35:53.190Z,11.03
2019-03-03T21:39:07.303Z,11.09
2019-03-03T21:42:21.019Z,11.05
2019-03-03T21:45:34.605Z,11.05
2019-03-03T21:48:48.078Z,11.12
2019-03-03T21:52:01.827Z,11.15
2019-03-03T21:55:15.395Z,11.29
2019-03-03T21:58:29.284Z,11.41
2019-03-03T22:01:42.764Z,11.39
2019-03-03T22:04:56.236Z,11.43
2019-03-03T22:08:09.826Z,11.52
2019-03-03T22:11:23.322Z,11.55
2019-03-03T22:14:36.789Z,11.51
2019-03-03T22:17:50.538Z,11.43
2019-03-03T22:21:04.039Z,11.44
2019-03-03T22:24:17.601Z,11.29
2019-03-03T22:27:31.076Z,11.27
2019-03-03T22:30:44.545Z,11.31
2019-03-03T22:33:58.041Z,11.25
2019-03-03T22:37:11.518Z,11.22
2019-03-03T22:40:25.132Z,11.30
2019-03-03T22:43:38.617Z,11.20
2019-03-03T22:46:52.359Z,11.16
2019-03-03T22:50:06.532Z,11.19
2019-03-03T22:53:20.033Z,11.20
2019-03-03T22:56:33.859Z,11.10
2019-03-03T22:59:47.332Z,11.14
2019-03-03T23:03:01.292Z,11.15
2019-03-03T23:06:23.562Z,11.14
2019-03-03T23:10:15.009Z,11.04
2019-03-03T23:14:10.719Z,11.04
2019-03-03T23:17:33.653Z,11.11
2019-03-03T23:21:18.753Z,11.27
2019-03-03T23:25:16.201Z,11.30
2019-03-03T23:28:30.343Z,11.31
2019-03-03T23:31:44.106Z,11.34
2019-03-03T23:34:57.587Z,11.38
2019-03-03T23:38:11.172Z,11.47
2019-03-03T23:41:24.651Z,11.51
2019-03-03T23:44:38.394Z,11.46
2019-03-03T23:47:52.379Z,11.58
2019-03-03T23:51:05.858Z,11.64
2019-03-03T23:54:19.348Z,11.74
2019-03-03T23:57:33.160Z,11.86
